Time;durP1;ratioP1;P1;durP2;ratioP2;P2;SDS_P1;SDS_P2;PMS_P1;PMS_P2;Temp;Humidity;BMP_temperature;BMP_pressure;BME280_temperature;BME280_humidity;BME280_pressure;Samples;Min_cycle;Max_cycle;Signal;HPM_P1;HPM_P2
2021/09/14 00:01:04;;;;;;;5.13;4.63;;;14.30;99.90;;;;;;5000249;28;20555;-82
2021/09/14 00:03:30;;;;;;;5.60;4.87;;;14.20;99.90;;;;;;4999868;28;20187;-81
2021/09/14 00:05:55;;;;;;;6.10;4.80;;;14.20;99.90;;;;;;5001163;28;20187;-82
2021/09/14 00:08:21;;;;;;;7.17;4.60;;;14.20;99.90;;;;;;5001321;28;20267;-82
2021/09/14 00:10:47;;;;;;;6.07;5.03;;;14.20;99.90;;;;;;5001055;28;20201;-82
2021/09/14 00:13:13;;;;;;;5.53;4.43;;;14.10;99.90;;;;;;5000164;28;20187;-81
2021/09/14 00:15:39;;;;;;;6.60;4.67;;;14.10;99.90;;;;;;5000283;28;20238;-81
2021/09/14 00:18:05;;;;;;;5.30;4.27;;;14.10;99.90;;;;;;5001588;28;20237;-81
2021/09/14 00:20:30;;;;;;;4.80;4.33;;;14.10;99.90;;;;;;5000649;28;20218;-82
2021/09/14 00:22:56;;;;;;;5.43;4.60;;;14.20;99.90;;;;;;5001602;28;20171;-81
2021/09/14 00:25:22;;;;;;;10.87;4.57;;;14.20;99.90;;;;;;4999739;28;20649;-81
2021/09/14 00:27:48;;;;;;;6.60;4.47;;;14.20;99.90;;;;;;5000105;28;20180;-82
2021/09/14 00:30:13;;;;;;;5.90;4.40;;;14.20;99.90;;;;;;5001723;28;20176;-83
2021/09/14 00:32:40;;;;;;;5.83;3.90;;;14.20;99.90;;;;;;5001504;28;20179;-81
2021/09/14 00:35:06;;;;;;;6.80;4.43;;;14.30;99.90;;;;;;5000527;28;20195;-81
2021/09/14 00:37:32;;;;;;;6.90;4.33;;;14.30;99.90;;;;;;5004662;28;20203;-81
2021/09/14 00:39:58;;;;;;;4.67;3.80;;;;;;;;;;5008442;28;20179;-81
2021/09/14 00:42:23;;;;;;;8.37;4.70;;;14.20;99.90;;;;;;5009116;28;20232;-81
2021/09/14 00:44:49;;;;;;;5.73;4.20;;;14.20;99.90;;;;;;5000643;28;20252;-81
2021/09/14 00:47:15;;;;;;;7.60;4.63;;;14.20;99.90;;;;;;5000690;28;20646;-81
2021/09/14 00:49:40;;;;;;;4.63;4.13;;;14.30;99.90;;;;;;5001795;28;20172;-82
2021/09/14 00:52:09;;;;;;;6.90;4.50;;;14.30;99.90;;;;;;5001207;28;20238;-82
2021/09/14 00:54:38;;;;;;;6.53;4.33;;;14.30;99.90;;;;;;5001126;28;20168;-82
2021/09/14 00:57:05;;;;;;;5.87;4.33;;;14.20;99.90;;;;;;5000708;28;20298;-81
2021/09/14 00:59:31;;;;;;;5.80;4.70;;;14.20;99.90;;;;;;5000491;28;20184;-82
2021/09/14 01:01:57;;;;;;;5.30;4.57;;;14.20;99.90;;;;;;5001321;28;20259;-82
2021/09/14 01:04:23;;;;;;;6.97;4.13;;;14.20;99.90;;;;;;5001863;28;20211;-84
2021/09/14 01:06:50;;;;;;;5.07;4.27;;;14.10;99.90;;;;;;5016576;28;20188;-81
2021/09/14 01:09:16;;;;;;;5.87;4.57;;;14.10;99.90;;;;;;5019301;28;20167;-81
2021/09/14 01:11:42;;;;;;;6.27;4.67;;;14.10;99.90;;;;;;5004327;28;20214;-82
2021/09/14 01:14:09;;;;;;;4.40;3.93;;;14.10;99.90;;;;;;5002547;28;20642;-81
2021/09/14 01:16:37;;;;;;;7.87;4.50;;;14.10;99.90;;;;;;5002744;28;20223;-82
2021/09/14 01:19:04;;;;;;;5.23;4.67;;;14.00;99.90;;;;;;5004980;28;20179;-81
2021/09/14 01:21:31;;;;;;;5.47;4.67;;;14.00;99.90;;;;;;5004617;28;20195;-81
2021/09/14 01:23:58;;;;;;;5.40;4.60;;;14.00;99.90;;;;;;5003719;28;20266;-81
2021/09/14 01:26:25;;;;;;;7.43;4.57;;;14.00;99.90;;;;;;5005398;28;20183;-82
2021/09/14 01:28:51;;;;;;;7.73;4.63;;;14.00;99.90;;;;;;5006042;28;20180;-82
2021/09/14 01:31:17;;;;;;;7.03;4.33;;;13.90;99.90;;;;;;5005493;28;20203;-82
2021/09/14 01:33:49;;;;;;;5.43;4.63;;;13.90;99.90;;;;;;5004983;28;20191;-82
2021/09/14 01:36:16;;;;;;;6.20;5.17;;;13.90;99.90;;;;;;5007986;28;20216;-81
2021/09/14 01:38:43;;;;;;;6.93;4.83;;;13.90;99.90;;;;;;5005691;28;20211;-82
2021/09/14 01:41:09;;;;;;;6.00;5.37;;;13.90;99.90;;;;;;5006198;28;20226;-82
2021/09/14 01:43:36;;;;;;;6.43;4.77;;;13.80;99.90;;;;;;5006072;28;20262;-82
2021/09/14 01:46:02;;;;;;;6.20;4.93;;;13.80;99.90;;;;;;5005551;28;20191;-82
2021/09/14 01:48:28;;;;;;;6.80;5.00;;;13.70;99.90;;;;;;5004489;28;20176;-82
2021/09/14 01:50:54;;;;;;;7.03;4.83;;;13.70;99.90;;;;;;5003373;28;20294;-81
2021/09/14 01:53:21;;;;;;;5.50;4.73;;;13.70;99.90;;;;;;5003725;28;20187;-82
2021/09/14 01:55:47;;;;;;;6.07;5.23;;;13.70;99.90;;;;;;5000093;28;20303;-81
2021/09/14 01:58:13;;;;;;;6.50;4.63;;;13.50;99.90;;;;;;4998929;28;20207;-81
2021/09/14 02:00:45;;;;;;;6.03;4.80;;;13.40;99.90;;;;;;5002312;28;20199;-82
2021/09/14 02:43:29;;;;;;;5.70;4.70;;;13.20;99.90;;;;;;5003224;28;20265;-81
2021/09/14 02:59:22;;;;;;;5.63;4.53;;;13.30;99.90;;;;;;5002384;28;20322;-82
2021/09/14 03:01:48;;;;;;;9.33;4.67;;;13.30;99.90;;;;;;5002018;28;20229;-82
2021/09/14 03:04:15;;;;;;;6.03;4.77;;;13.30;99.90;;;;;;5001107;28;20189;-81
2021/09/14 03:06:41;;;;;;;5.80;5.03;;;13.30;99.90;;;;;;5001151;28;20179;-81
2021/09/14 03:09:06;;;;;;;6.50;5.07;;;13.30;99.90;;;;;;5002555;28;20183;-81
2021/09/14 03:11:32;;;;;;;5.13;4.63;;;13.30;99.90;;;;;;5002037;28;20203;-81
2021/09/14 03:13:58;;;;;;;6.10;4.70;;;13.30;99.90;;;;;;5001096;28;20191;-81
2021/09/14 03:16:24;;;;;;;6.27;4.63;;;13.20;99.90;;;;;;5000994;28;20265;-81
2021/09/14 03:18:49;;;;;;;6.53;4.70;;;13.20;99.90;;;;;;5001808;28;20191;-82
2021/09/14 03:21:16;;;;;;;12.23;4.77;;;13.20;99.90;;;;;;5000493;28;20192;-82
2021/09/14 03:23:42;;;;;;;5.50;4.80;;;13.20;99.90;;;;;;5001150;28;20175;-81
2021/09/14 03:26:08;;;;;;;7.43;4.83;;;13.20;99.90;;;;;;5002303;28;20198;-82
2021/09/14 03:28:34;;;;;;;4.63;4.20;;;13.20;99.90;;;;;;5001444;28;20179;-82
2021/09/14 03:31:00;;;;;;;5.20;4.10;;;;;;;;;;5001372;28;20286;-82
2021/09/14 03:33:26;;;;;;;6.73;4.23;;;13.10;99.90;;;;;;5001579;28;20179;-82
2021/09/14 03:35:52;;;;;;;4.87;4.20;;;13.10;99.90;;;;;;5003654;28;20242;-81
2021/09/14 03:38:17;;;;;;;4.60;4.13;;;13.10;99.90;;;;;;5003958;28;20233;-81
2021/09/14 03:40:43;;;;;;;4.80;4.20;;;13.10;99.90;;;;;;5002626;28;20284;-81
2021/09/14 03:43:10;;;;;;;8.37;4.67;;;13.10;99.90;;;;;;5003016;28;20182;-81
2021/09/14 03:45:36;;;;;;;5.40;4.80;;;13.10;99.90;;;;;;5001231;28;20214;-81
2021/09/14 03:48:02;;;;;;;5.07;4.20;;;13.00;99.90;;;;;;5002072;28;20198;-83
2021/09/14 03:50:28;;;;;;;7.87;4.27;;;13.00;99.90;;;;;;5002714;28;20696;-82
2021/09/14 03:52:53;;;;;;;6.20;4.83;;;13.00;99.90;;;;;;5002576;28;20637;-83
2021/09/14 03:55:19;;;;;;;8.80;4.60;;;13.00;99.90;;;;;;5001929;28;20183;-83
2021/09/14 03:57:45;;;;;;;5.57;4.60;;;12.90;99.90;;;;;;5006852;28;20190;-82
2021/09/14 04:00:11;;;;;;;5.17;4.43;;;12.90;99.90;;;;;;5003576;28;20179;-83
2021/09/14 04:02:42;;;;;;;5.40;4.60;;;12.90;99.90;;;;;;5002727;28;20183;-83
2021/09/14 04:07:53;;;;;;;4.93;4.43;;;12.90;99.90;;;;;;5003475;28;20163;-82
2021/09/14 04:10:19;;;;;;;5.23;4.37;;;12.80;99.90;;;;;;4999982;28;20604;-82
2021/09/14 04:12:45;;;;;;;7.57;5.50;;;12.80;99.90;;;;;;5002678;28;20176;-82
2021/09/14 04:15:11;;;;;;;6.03;4.57;;;12.80;99.90;;;;;;5006144;28;20178;-83
2021/09/14 04:17:36;;;;;;;5.17;4.67;;;12.80;99.90;;;;;;5005379;28;20633;-82
2021/09/14 04:20:03;;;;;;;7.37;4.63;;;12.80;99.90;;;;;;5003329;28;20183;-82
2021/09/14 04:22:29;;;;;;;5.77;5.07;;;12.80;99.90;;;;;;5004504;28;20183;-82
2021/09/14 04:24:55;;;;;;;7.53;4.93;;;12.80;99.90;;;;;;5004640;28;20184;-83
2021/09/14 04:27:20;;;;;;;7.90;4.67;;;12.80;99.90;;;;;;5003537;28;20190;-83
2021/09/14 04:29:47;;;;;;;6.70;4.93;;;12.70;99.90;;;;;;5005794;28;20189;-82
2021/09/14 04:32:12;;;;;;;7.00;5.43;;;12.70;99.90;;;;;;5002160;28;20206;-83
2021/09/14 04:34:38;;;;;;;5.90;5.07;;;12.70;99.90;;;;;;5001928;28;20214;-83
2021/09/14 04:37:04;;;;;;;6.43;5.10;;;12.70;99.90;;;;;;4999929;28;20202;-83
2021/09/14 04:39:30;;;;;;;6.00;5.00;;;12.70;99.90;;;;;;4999645;28;20230;-83
2021/09/14 04:41:55;;;;;;;7.17;4.97;;;12.70;99.90;;;;;;4997637;28;20200;-82
2021/09/14 04:44:21;;;;;;;8.07;5.50;;;12.70;99.90;;;;;;4997265;28;20262;-83
2021/09/14 04:46:47;;;;;;;6.10;5.20;;;12.70;99.90;;;;;;4998156;28;20234;-83
2021/09/14 04:49:12;;;;;;;6.90;5.57;;;12.70;99.90;;;;;;4998081;28;20190;-83
2021/09/14 04:51:38;;;;;;;9.87;6.10;;;12.80;99.90;;;;;;4999260;28;20195;-82
2021/09/14 04:54:04;;;;;;;9.07;6.20;;;12.80;99.90;;;;;;4997818;28;20191;-83
2021/09/14 04:56:30;;;;;;;5.87;5.30;;;;;;;;;;4997864;28;20230;-83
2021/09/14 04:58:55;;;;;;;7.50;5.63;;;13.00;99.90;;;;;;4999326;28;20179;-83
2021/09/14 05:01:21;;;;;;;5.83;5.07;;;13.00;99.90;;;;;;4999192;28;20612;-83
2021/09/14 05:03:48;;;;;;;9.30;5.57;;;;;;;;;;4998864;28;20230;-82
2021/09/14 05:06:14;;;;;;;6.97;5.33;;;13.00;99.90;;;;;;5000298;28;20180;-82
2021/09/14 05:08:39;;;;;;;8.63;5.60;;;13.00;99.90;;;;;;4999622;28;20233;-83
2021/09/14 05:11:05;;;;;;;6.17;5.03;;;13.10;99.90;;;;;;4998835;28;20199;-83
2021/09/14 05:13:32;;;;;;;7.13;5.80;;;13.10;99.90;;;;;;4998896;28;20187;-83
2021/09/14 05:15:57;;;;;;;6.13;5.53;;;13.10;99.90;;;;;;5000156;28;20535;-83
2021/09/14 05:18:24;;;;;;;7.53;5.10;;;13.10;99.90;;;;;;5002438;28;20203;-83
2021/09/14 05:20:51;;;;;;;6.77;4.97;;;13.20;99.90;;;;;;5001052;28;20773;-83
2021/09/14 05:23:24;;;;;;;6.23;5.60;;;13.20;99.90;;;;;;5000588;28;20637;-83
2021/09/14 05:25:50;;;;;;;5.93;5.07;;;13.20;99.90;;;;;;4999126;28;20580;-83
2021/09/14 05:28:15;;;;;;;6.87;4.80;;;13.30;99.90;;;;;;5000551;28;20201;-84
2021/09/14 05:30:44;;;;;;;6.77;5.70;;;13.40;99.90;;;;;;5000993;28;20258;-83
2021/09/14 05:33:10;;;;;;;7.20;5.00;;;13.40;99.90;;;;;;4999676;28;20580;-81
2021/09/14 05:35:48;;;;;;;7.13;5.00;;;13.40;99.90;;;;;;4999549;28;20195;-81
2021/09/14 05:38:16;;;;;;;5.67;5.07;;;13.50;99.90;;;;;;4998867;28;20166;-81
2021/09/14 05:40:43;;;;;;;5.90;4.67;;;13.60;99.90;;;;;;4999038;28;20195;-82
2021/09/14 05:43:09;;;;;;;6.43;4.63;;;13.60;99.90;;;;;;5001239;28;20195;-81
2021/09/14 05:45:35;;;;;;;7.23;5.33;;;13.70;99.90;;;;;;4999496;28;20616;-81
2021/09/14 05:48:01;;;;;;;10.37;5.23;;;13.70;99.90;;;;;;5001542;28;20215;-82
2021/09/14 05:50:26;;;;;;;7.97;4.70;;;13.70;99.90;;;;;;5000219;28;20195;-82
2021/09/14 05:52:52;;;;;;;6.97;5.20;;;13.70;99.90;;;;;;5001027;28;20172;-81
2021/09/14 05:55:18;;;;;;;6.40;4.40;;;13.80;99.90;;;;;;5000345;28;20183;-82
2021/09/14 05:57:44;;;;;;;6.77;5.00;;;13.80;99.90;;;;;;5004269;28;20199;-82
2021/09/14 06:00:11;;;;;;;5.40;4.67;;;13.80;99.90;;;;;;5003447;28;20175;-83
2021/09/14 06:02:37;;;;;;;6.27;4.93;;;13.80;99.90;;;;;;5004037;28;20171;-81
2021/09/14 06:05:04;;;;;;;8.87;4.90;;;13.90;99.90;;;;;;5006060;28;20176;-82
2021/09/14 06:07:30;;;;;;;5.40;4.37;;;14.00;99.90;;;;;;5007122;28;20218;-82
2021/09/14 06:09:56;;;;;;;6.87;4.83;;;14.00;99.90;;;;;;5008992;28;20168;-81
2021/09/14 06:12:22;;;;;;;5.17;4.50;;;14.10;99.90;;;;;;5006294;28;20199;-81
2021/09/14 06:14:48;;;;;;;5.50;4.27;;;14.20;99.90;;;;;;5005044;28;20262;-82
2021/09/14 06:17:14;;;;;;;6.03;4.97;;;14.30;99.90;;;;;;5003033;28;20293;-82
2021/09/14 06:19:39;;;;;;;8.30;4.80;;;14.40;99.90;;;;;;5005429;28;20232;-82
2021/09/14 06:22:05;;;;;;;7.97;4.83;;;14.50;99.90;;;;;;5005696;28;20250;-82
2021/09/14 06:24:31;;;;;;;5.53;4.53;;;14.50;99.90;;;;;;5004017;28;20660;-82
2021/09/14 06:26:57;;;;;;;10.97;5.03;;;14.60;99.90;;;;;;5004930;28;20188;-82
2021/09/14 06:29:22;;;;;;;5.77;4.50;;;14.70;99.90;;;;;;5005719;28;20180;-82
2021/09/14 06:31:48;;;;;;;6.10;4.60;;;14.80;99.90;;;;;;5001410;28;20690;-82
2021/09/14 06:34:14;;;;;;;6.03;4.70;;;14.90;99.90;;;;;;5001127;28;20190;-82
2021/09/14 06:36:39;;;;;;;7.03;4.87;;;15.00;99.90;;;;;;5002571;28;20575;-82
2021/09/14 06:39:05;;;;;;;7.00;4.50;;;15.20;99.90;;;;;;5001187;28;20176;-82
2021/09/14 06:41:31;;;;;;;9.13;4.90;;;15.30;99.90;;;;;;5001211;28;20231;-82
2021/09/14 06:43:58;;;;;;;5.17;4.17;;;15.40;99.90;;;;;;5002556;28;20199;-82
2021/09/14 06:46:24;;;;;;;6.00;4.37;;;15.50;99.90;;;;;;5002449;28;20175;-82
2021/09/14 06:48:50;;;;;;;6.30;4.10;;;15.70;99.90;;;;;;5001553;28;20180;-82
2021/09/14 06:51:16;;;;;;;5.97;4.23;;;15.80;99.90;;;;;;5003849;28;20208;-82
2021/09/14 06:53:41;;;;;;;5.10;4.00;;;15.90;99.90;;;;;;5004249;28;20615;-82
2021/09/14 06:56:08;;;;;;;5.10;4.10;;;16.00;99.90;;;;;;5007024;28;20551;-81
2021/09/14 06:58:34;;;;;;;6.20;3.83;;;16.10;99.90;;;;;;4999458;28;20179;-81
2021/09/14 07:01:00;;;;;;;6.10;4.40;;;16.30;99.90;;;;;;4999080;28;20195;-82
2021/09/14 07:03:25;;;;;;;5.77;4.30;;;16.40;99.90;;;;;;4999237;28;20182;-82
2021/09/14 07:05:51;;;;;;;5.80;4.17;;;16.50;99.90;;;;;;5000814;28;20227;-82
2021/09/14 07:08:17;;;;;;;5.60;4.17;;;16.70;99.90;;;;;;4999740;28;20233;-82
2021/09/14 07:10:44;;;;;;;5.27;3.80;;;;;;;;;;4999603;28;20557;-81
2021/09/14 07:13:09;;;;;;;4.73;3.97;;;16.80;99.90;;;;;;4999503;28;20179;-81
2021/09/14 07:15:36;;;;;;;4.43;3.57;;;16.90;99.90;;;;;;4999893;28;20180;-82
2021/09/14 07:18:02;;;;;;;5.40;3.60;;;17.00;99.90;;;;;;5001662;28;20219;-82
2021/09/14 07:20:28;;;;;;;5.03;3.47;;;17.30;99.90;;;;;;5000371;28;20195;-82
2021/09/14 07:22:53;;;;;;;4.23;3.77;;;17.30;99.90;;;;;;5001149;28;20604;-82
2021/09/14 07:25:19;;;;;;;4.93;3.93;;;17.50;99.90;;;;;;5001204;28;20254;-81
2021/09/14 07:27:45;;;;;;;4.80;3.97;;;17.60;99.90;;;;;;5000473;28;20175;-81
2021/09/14 07:30:11;;;;;;;7.87;3.30;;;17.80;99.90;;;;;;5001746;28;20168;-82
2021/09/14 07:32:37;;;;;;;4.73;4.30;;;17.90;99.90;;;;;;5000825;28;20179;-82
2021/09/14 07:35:04;;;;;;;6.57;3.80;;;18.00;99.90;;;;;;5002534;28;20214;-82
2021/09/14 07:37:30;;;;;;;5.83;4.10;;;18.10;99.90;;;;;;5001502;28;20287;-82
2021/09/14 07:39:55;;;;;;;6.73;4.00;;;18.30;99.90;;;;;;5000813;28;20193;-81
2021/09/14 07:42:21;;;;;;;5.87;4.07;;;18.40;99.90;;;;;;5001789;28;20195;-82
2021/09/14 07:44:47;;;;;;;4.97;4.00;;;18.60;99.90;;;;;;5002360;28;20172;-82
2021/09/14 07:47:12;;;;;;;4.93;3.57;;;18.80;99.90;;;;;;5001819;28;20273;-82
2021/09/14 07:49:38;;;;;;;4.77;3.53;;;19.00;99.90;;;;;;5001246;28;20231;-83
2021/09/14 07:52:04;;;;;;;5.17;3.93;;;19.10;99.90;;;;;;5002688;28;20219;-83
2021/09/14 07:54:30;;;;;;;4.40;3.40;;;19.30;99.90;;;;;;5001973;28;20181;-82
2021/09/14 07:56:55;;;;;;;4.63;3.93;;;19.70;99.90;;;;;;5002935;28;20197;-82
2021/09/14 07:59:21;;;;;;;6.47;4.00;;;20.20;99.90;;;;;;5002134;28;20540;-83
2021/09/14 08:01:46;;;;;;;5.30;4.10;;;20.60;99.90;;;;;;5001325;28;20203;-83
2021/09/14 08:04:12;;;;;;;4.50;3.70;;;21.10;99.90;;;;;;5003619;28;20530;-82
2021/09/14 08:06:38;;;;;;;6.27;3.77;;;21.70;99.90;;;;;;5001898;28;20181;-82
2021/09/14 08:09:03;;;;;;;4.10;3.70;;;22.30;99.90;;;;;;4998900;28;20188;-83
2021/09/14 08:11:29;;;;;;;5.13;3.40;;;23.00;99.90;;;;;;4999337;28;20205;-83
2021/09/14 08:13:55;;;;;;;5.30;4.23;;;23.40;99.90;;;;;;5000615;28;20207;-83
2021/09/14 08:16:20;;;;;;;6.50;4.00;;;23.90;99.90;;;;;;4999072;28;20759;-83
2021/09/14 08:18:46;;;;;;;4.03;3.57;;;24.30;99.90;;;;;;4999410;28;20186;-83
2021/09/14 08:21:12;;;;;;;4.30;3.90;;;24.50;99.90;;;;;;4999594;28;20283;-83
2021/09/14 08:23:38;;;;;;;7.30;4.07;;;24.50;99.90;;;;;;5003989;28;20558;-83
2021/09/14 08:26:04;;;;;;;4.60;3.90;;;25.00;99.90;;;;;;5004574;28;20212;-83
2021/09/14 08:28:29;;;;;;;4.13;3.73;;;25.70;99.90;;;;;;4999897;28;20186;-83
2021/09/14 08:30:56;;;;;;;4.73;3.83;;;26.30;99.90;;;;;;5001067;28;20229;-83
2021/09/14 08:33:22;;;;;;;4.73;3.60;;;26.80;99.90;;;;;;4999785;28;20296;-83
2021/09/14 08:35:48;;;;;;;3.30;3.00;;;26.80;99.90;;;;;;5001384;28;20287;-83
2021/09/14 08:38:13;;;;;;;4.03;3.63;;;26.70;99.90;;;;;;5001551;28;20217;-83
2021/09/14 08:40:41;;;;;;;5.00;3.80;;;26.70;99.90;;;;;;4999699;28;20213;-83
2021/09/14 08:43:11;;;;;;;4.50;3.20;;;26.70;99.90;;;;;;5000864;28;20192;-83
2021/09/14 08:45:37;;;;;;;3.70;3.40;;;26.70;99.90;;;;;;5001326;28;20180;-84
2021/09/14 08:48:04;;;;;;;3.30;3.00;;;26.60;99.90;;;;;;5002478;28;20205;-84
2021/09/14 08:50:29;;;;;;;6.10;3.43;;;26.80;99.90;;;;;;5003155;28;20203;-83
2021/09/14 08:52:55;;;;;;;4.43;3.40;;;27.00;99.90;;;;;;5001655;28;20183;-83
2021/09/14 08:55:22;;;;;;;4.03;2.90;;;27.20;99.90;;;;;;5001740;28;20222;-83
2021/09/14 08:57:52;;;;;;;4.90;3.20;;;27.20;99.90;;;;;;4998126;28;20246;-83
2021/09/14 09:00:33;;;;;;;3.37;3.07;;;27.30;99.90;;;;;;4999287;28;20195;-83
2021/09/14 09:02:59;;;;;;;3.80;2.70;;;27.30;99.80;;;;;;4998714;28;20210;-83
2021/09/14 09:05:32;;;;;;;3.43;3.00;;;27.50;99.90;;;;;;4999629;28;20180;-83
2021/09/14 09:07:58;;;;;;;5.20;3.00;;;27.80;99.90;;;;;;4999662;28;20174;-83
2021/09/14 09:10:23;;;;;;;3.97;2.70;;;28.00;99.90;;;;;;4998194;28;20211;-83
2021/09/14 09:12:49;;;;;;;3.23;2.93;;;28.10;98.10;;;;;;4998602;28;20184;-83
2021/09/14 09:15:27;;;;;;;4.23;3.17;;;28.30;96.70;;;;;;4999953;28;20666;-83
2021/09/14 09:18:11;;;;;;;3.23;2.93;;;28.50;97.90;;;;;;5000359;28;20180;-83
2021/09/14 09:20:39;;;;;;;2.90;2.70;;;28.50;96.30;;;;;;4998597;28;20287;-83
2021/09/14 09:23:11;;;;;;;2.87;2.20;;;28.50;93.80;;;;;;4998504;28;20180;-84
2021/09/14 09:25:38;;;;;;;2.70;2.50;;;28.70;94.10;;;;;;5000508;28;20237;-84
2021/09/14 09:28:10;;;;;;;4.90;2.50;;;28.80;92.20;;;;;;4999083;28;20209;-84
2021/09/14 09:30:40;;;;;;;2.77;2.57;;;29.00;94.10;;;;;;5003488;28;20577;-84
2021/09/14 09:33:08;;;;;;;2.60;2.40;;;29.20;94.40;;;;;;5004587;28;20220;-84
2021/09/14 09:35:39;;;;;;;4.30;2.47;;;29.40;96.10;;;;;;5003420;28;20251;-84
2021/09/14 09:38:06;;;;;;;3.43;2.90;;;29.60;94.70;;;;;;5003014;28;20201;-84
2021/09/14 09:40:41;;;;;;;3.00;2.80;;;29.90;96.00;;;;;;5006092;28;20187;-84
2021/09/14 09:43:08;;;;;;;3.13;2.83;;;29.90;92.20;;;;;;5005759;28;20171;-84
2021/09/14 09:45:42;;;;;;;3.10;2.70;;;29.90;90.60;;;;;;5004779;28;20199;-84
2021/09/14 09:48:09;;;;;;;2.80;2.60;;;29.40;92.40;;;;;;5014299;28;20202;-82
2021/09/14 09:50:36;;;;;;;3.67;2.73;;;29.50;90.90;;;;;;5015733;28;20211;-82
2021/09/14 09:53:03;;;;;;;3.03;2.73;;;29.70;94.20;;;;;;5013642;28;20194;-82
2021/09/14 09:55:30;;;;;;;4.33;2.73;;;29.90;93.70;;;;;;5011307;28;20208;-82
2021/09/14 09:57:56;;;;;;;3.60;3.30;;;30.00;91.70;;;;;;5012586;28;20172;-82
2021/09/14 10:00:22;;;;;;;3.93;2.97;;;30.10;93.80;;;;;;5006820;28;20196;-82
2021/09/14 10:02:53;;;;;;;3.13;2.87;;;30.40;91.10;;;;;;5005303;28;20186;-82
2021/09/14 10:05:25;;;;;;;6.03;3.07;;;30.50;90.80;;;;;;5004129;28;20160;-82
2021/09/14 10:07:51;;;;;;;4.20;3.07;;;30.60;95.50;;;;;;5000708;28;20207;-82
2021/09/14 10:10:17;;;;;;;7.17;3.73;;;30.70;90.10;;;;;;5002603;28;20185;-81
2021/09/14 10:12:42;;;;;;;3.20;2.90;;;30.70;92.30;;;;;;5001119;28;20201;-82
2021/09/14 10:15:13;;;;;;;5.40;3.70;;;30.70;93.20;;;;;;5000730;28;20537;-82
2021/09/14 10:17:51;;;;;;;3.60;2.67;;;30.90;90.80;;;;;;5001504;28;20593;-82
2021/09/14 10:20:19;;;;;;;8.27;2.93;;;30.80;89.90;;;;;;4998744;28;20176;-82
2021/09/14 10:22:46;;;;;;;6.73;3.10;;;30.80;93.00;;;;;;4991073;28;20180;-82
2021/09/14 10:25:20;;;;;;;3.23;2.93;;;30.80;91.10;;;;;;4988918;28;20175;-82
2021/09/14 10:27:47;;;;;;;7.93;3.50;;;30.70;91.00;;;;;;4986571;28;20178;-82
2021/09/14 10:30:14;;;;;;;6.43;3.30;;;30.70;90.70;;;;;;4990913;28;20185;-82
2021/09/14 10:32:42;;;;;;;4.70;3.10;;;30.60;92.00;;;;;;4998318;28;20217;-82
2021/09/14 10:35:10;;;;;;;4.37;2.70;;;30.80;86.10;;;;;;4982418;28;20196;-83
2021/09/14 10:37:36;;;;;;;3.60;2.60;;;31.00;90.90;;;;;;4982792;28;20204;-83
2021/09/14 10:40:12;;;;;;;4.87;3.20;;;31.20;89.40;;;;;;4982663;28;20716;-82
2021/09/14 10:42:43;;;;;;;2.97;2.67;;;31.20;91.60;;;;;;4983106;28;20179;-83
2021/09/14 10:45:17;;;;;;;2.80;2.60;;;31.20;90.30;;;;;;4983659;28;20185;-86
2021/09/14 10:47:49;;;;;;;3.33;3.13;;;31.50;91.50;;;;;;4984036;28;20271;-83
2021/09/14 10:50:37;;;;;;;3.10;2.80;;;31.40;85.80;;;;;;4982744;28;20177;-83
2021/09/14 10:53:03;;;;;;;2.90;2.70;;;30.80;86.10;;;;;;4981367;28;20189;-83
2021/09/14 10:55:31;;;;;;;3.80;2.90;;;30.80;87.60;;;;;;4982292;28;20178;-82
2021/09/14 10:57:59;;;;;;;3.33;2.47;;;30.60;81.70;;;;;;4982575;28;20555;-83
2021/09/14 11:00:34;;;;;;;2.73;2.50;;;30.70;89.50;;;;;;4981986;28;20208;-82
2021/09/14 11:03:04;;;;;;;4.67;2.97;;;31.00;84.00;;;;;;4983352;28;20197;-85
2021/09/14 11:05:37;;;;;;;3.60;2.57;;;30.80;85.10;;;;;;4981990;28;20191;-82
2021/09/14 11:08:05;;;;;;;4.00;2.90;;;30.80;85.30;;;;;;4983890;28;20208;-84
2021/09/14 11:10:35;;;;;;;4.77;2.50;;;31.10;93.10;;;;;;4984440;28;20198;-82
2021/09/14 11:13:02;;;;;;;2.80;2.60;;;31.40;82.30;;;;;;4982101;28;20183;-85
2021/09/14 11:15:28;;;;;;;2.60;2.20;;;31.60;78.60;;;;;;4992993;28;20191;-82
2021/09/14 11:17:54;;;;;;;5.37;2.50;;;31.90;86.10;;;;;;4991547;28;20216;-84
2021/09/14 11:20:25;;;;;;;4.67;3.10;;;31.80;83.50;;;;;;4983013;28;20175;-85
2021/09/14 11:22:52;;;;;;;5.97;2.90;;;31.80;84.00;;;;;;4981858;28;20186;-84
2021/09/14 11:25:26;;;;;;;7.73;3.57;;;31.80;90.10;;;;;;4983272;28;20188;-85
2021/09/14 11:28:03;;;;;;;4.77;2.80;;;31.80;86.10;;;;;;4983847;28;20576;-85
2021/09/14 11:30:31;;;;;;;9.13;3.00;;;32.00;87.80;;;;;;4981636;28;20265;-84
2021/09/14 11:32:59;;;;;;;3.73;3.33;;;32.20;84.10;;;;;;4980875;28;20191;-85
2021/09/14 11:35:36;;;;;;;8.60;3.00;;;32.60;89.00;;;;;;4982689;28;20200;-83
2021/09/14 11:38:06;;;;;;;4.27;3.30;;;32.80;84.80;;;;;;4983602;28;20173;-83
2021/09/14 11:40:48;;;;;;;3.90;2.73;;;32.90;79.70;;;;;;4984988;28;20680;-83
2021/09/14 11:43:33;;;;;;;3.73;2.63;;;32.70;79.60;;;;;;4985516;28;20241;-83
2021/09/14 11:46:16;;;;;;;6.67;3.23;;;32.40;77.60;;;;;;4981478;28;20190;-83
2021/09/14 11:48:54;;;;;;;5.10;2.80;;;32.10;81.00;;;;;;4981235;28;20253;-83
2021/09/14 11:51:20;;;;;;;5.40;3.13;;;31.90;80.50;;;;;;4983621;28;20192;-83
2021/09/14 11:53:51;;;;;;;3.37;2.90;;;31.80;83.00;;;;;;4981475;28;20188;-83
2021/09/14 11:56:19;;;;;;;3.80;2.87;;;31.60;82.50;;;;;;4983011;28;20196;-83
2021/09/14 11:58:47;;;;;;;5.43;3.17;;;31.30;81.20;;;;;;4983632;28;20178;-83
2021/09/14 12:01:15;;;;;;;5.50;3.50;;;31.50;77.00;;;;;;4983542;28;20700;-83
2021/09/14 12:03:45;;;;;;;3.00;2.80;;;31.70;80.10;;;;;;4983084;28;20648;-83
2021/09/14 12:06:20;;;;;;;4.00;3.60;;;32.50;79.30;;;;;;4983376;28;20185;-83
2021/09/14 12:08:46;;;;;;;3.63;3.33;;;33.10;82.00;;;;;;4980632;28;20177;-83
2021/09/14 12:11:23;;;;;;;3.30;3.10;;;33.10;76.30;;;;;;4981524;28;20265;-83
2021/09/14 12:13:59;;;;;;;5.37;3.07;;;33.30;81.80;;;;;;4980561;28;20183;-83
2021/09/14 12:16:27;;;;;;;3.97;3.57;;;33.40;83.40;;;;;;4982227;28;20205;-84
2021/09/14 12:18:54;;;;;;;3.80;3.50;;;33.70;76.00;;;;;;4980762;28;20182;-83
2021/09/14 12:21:20;;;;;;;7.97;3.57;;;34.00;79.80;;;;;;4981848;28;20214;-83
2021/09/14 12:23:46;;;;;;;3.90;3.40;;;34.40;80.00;;;;;;4982017;28;20741;-83
2021/09/14 12:26:24;;;;;;;3.37;2.90;;;34.70;79.30;;;;;;4981514;28;20274;-83
2021/09/14 12:28:52;;;;;;;4.00;3.10;;;34.90;72.60;;;;;;4982541;28;20654;-84
2021/09/14 12:31:19;;;;;;;3.93;2.87;;;34.10;70.10;;;;;;4981607;28;20217;-84
2021/09/14 12:33:45;;;;;;;2.80;2.60;;;33.50;75.10;;;;;;4982746;28;20181;-84
2021/09/14 12:36:11;;;;;;;3.70;2.80;;;33.80;77.10;;;;;;4982282;28;20673;-84
2021/09/14 12:38:37;;;;;;;3.00;2.80;;;34.10;71.40;;;;;;4981790;28;20640;-84
2021/09/14 12:41:03;;;;;;;4.53;2.73;;;33.60;73.90;;;;;;4987595;28;20202;-84
2021/09/14 12:43:29;;;;;;;4.17;2.80;;;33.30;73.70;;;;;;4988301;28;20186;-84
2021/09/14 12:45:54;;;;;;;3.47;3.00;;;32.90;72.80;;;;;;4980157;28;20181;-84
2021/09/14 12:48:20;;;;;;;6.00;3.30;;;33.30;75.60;;;;;;4981035;28;20674;-84
2021/09/14 12:50:45;;;;;;;2.97;2.77;;;34.20;74.00;;;;;;4981928;28;20667;-84
2021/09/14 12:53:11;;;;;;;4.30;2.33;;;34.90;65.50;;;;;;4979128;28;20179;-84
2021/09/14 12:55:38;;;;;;;4.03;2.90;;;35.30;69.00;;;;;;4981365;28;20175;-84
2021/09/14 12:58:06;;;;;;;4.33;2.83;;;35.30;66.80;;;;;;4980307;28;20416;-84
2021/09/14 13:00:34;;;;;;;3.63;3.23;;;35.80;65.10;;;;;;4981949;28;20190;-84
2021/09/14 13:02:59;;;;;;;5.07;3.23;;;35.70;63.40;;;;;;4980425;28;20184;-84
2021/09/14 13:05:27;;;;;;;2.90;2.60;;;35.40;68.90;;;;;;4983292;28;20233;-84
2021/09/14 13:07:53;;;;;;;4.43;2.50;;;35.40;71.00;;;;;;4985762;28;20179;-83
2021/09/14 13:10:19;;;;;;;3.73;3.43;;;35.50;65.60;;;;;;4984302;28;20191;-84
2021/09/14 13:12:50;;;;;;;3.37;2.80;;;35.50;66.60;;;;;;4987054;28;20538;-84
2021/09/14 13:18:01;;;;;;;3.47;2.70;;;35.40;62.50;;;;;;4986142;28;20175;-84
2021/09/14 13:20:27;;;;;;;4.17;3.10;;;34.90;66.80;;;;;;4983442;28;20250;-83
2021/09/14 13:22:56;;;;;;;3.20;2.70;;;35.20;62.80;;;;;;4984635;28;20178;-83
2021/09/14 13:25:22;;;;;;;3.27;2.97;;;35.50;61.40;;;;;;4983469;28;20178;-84
2021/09/14 13:27:48;;;;;;;2.60;2.40;;;35.70;61.50;;;;;;4983319;28;20183;-83
2021/09/14 13:30:14;;;;;;;3.37;3.00;;;35.50;65.30;;;;;;4982705;28;20588;-84
2021/09/14 13:32:40;;;;;;;3.00;2.70;;;35.50;61.10;;;;;;4984769;28;20673;-84
2021/09/14 13:35:06;;;;;;;3.87;2.57;;;35.50;59.60;;;;;;4984518;28;20201;-84
2021/09/14 13:37:33;;;;;;;3.30;3.00;;;35.20;59.50;;;;;;4983223;28;20295;-83
2021/09/14 13:39:59;;;;;;;3.27;2.97;;;35.50;60.50;;;;;;4983444;28;20183;-83
2021/09/14 13:42:25;;;;;;;2.77;2.57;;;35.80;60.70;;;;;;4982663;28;20231;-83
2021/09/14 13:47:20;;;;;;;4.50;2.70;;;35.80;58.50;;;;;;4984333;28;20192;-84
2021/09/14 13:49:49;;;;;;;2.50;2.30;;;35.90;58.90;;;;;;4982446;28;20197;-84